Time;durP1;ratioP1;P1;durP2;ratioP2;P2;SDS_P1;SDS_P2;PMS_P1;PMS_P2;Temp;Humidity;BMP_temperature;BMP_pressure;BME280_temperature;BME280_humidity;BME280_pressure;Samples;Min_cycle;Max_cycle;Signal;HPM_P1;HPM_P2
2024/03/04 00:00:20;;;;;;;0.20;0.20;;;;;;;8.20;100.00;98224.88;5028599;28;20060;-58
2024/03/04 00:02:47;;;;;;;0.10;0.10;;;;;;;8.17;100.00;98228.06;5031942;28;20183;-58
2024/03/04 00:05:14;;;;;;;0.30;0.30;;;;;;;8.25;100.00;98230.28;5027745;28;20050;-58
2024/03/04 00:07:41;;;;;;;0.20;0.20;;;;;;;8.11;100.00;98237.06;5029056;28;20057;-57
2024/03/04 00:10:10;;;;;;;0.28;0.28;;;;;;;8.30;100.00;98241.00;5030898;28;20053;-58
2024/03/04 00:12:37;;;;;;;0.30;0.30;;;;;;;8.16;100.00;98239.78;5038813;28;20601;-58
2024/03/04 00:15:05;;;;;;;0.30;0.30;;;;;;;8.21;100.00;98254.00;5029450;28;20049;-58
2024/03/04 00:17:33;;;;;;;0.32;0.32;;;;;;;8.35;100.00;98257.06;5034904;28;20455;-58
2024/03/04 00:20:00;;;;;;;0.30;0.30;;;;;;;8.24;100.00;98263.38;5032890;28;20042;-58
2024/03/04 00:22:27;;;;;;;0.40;0.40;;;;;;;8.24;100.00;98267.88;5040080;28;20488;-58
2024/03/04 00:24:55;;;;;;;0.30;0.30;;;;;;;8.23;100.00;98271.63;5026517;28;20049;-58
2024/03/04 00:27:23;;;;;;;0.30;0.30;;;;;;;8.20;100.00;98272.94;5043005;28;20111;-58
2024/03/04 00:29:51;;;;;;;0.30;0.30;;;;;;;8.24;100.00;98268.72;5029432;28;20053;-58
2024/03/04 00:32:18;;;;;;;0.20;0.20;;;;;;;8.29;100.00;98265.28;5034796;28;20171;-58
2024/03/04 00:34:46;;;;;;;0.30;0.30;;;;;;;8.17;100.00;98268.09;5030311;28;20124;-58
2024/03/04 00:37:13;;;;;;;0.30;0.30;;;;;;;8.28;100.00;98272.47;5031262;28;20083;-58
2024/03/04 00:39:41;;;;;;;0.30;0.30;;;;;;;8.22;100.00;98276.16;5031889;28;20060;-58
2024/03/04 00:42:08;;;;;;;0.40;0.40;;;;;;;8.15;100.00;98287.00;5028677;28;20752;-58
2024/03/04 00:44:37;;;;;;;0.40;0.40;;;;;;;8.14;100.00;98295.28;5040392;28;20053;-58
2024/03/04 00:47:04;;;;;;;0.30;0.30;;;;;;;8.08;100.00;98291.72;5030950;28;20128;-58
2024/03/04 00:49:31;;;;;;;0.40;0.40;;;;;;;8.13;100.00;98299.00;5032715;28;20132;-58
2024/03/04 00:51:58;;;;;;;0.20;0.20;;;;;;;8.18;100.00;98294.53;5032326;28;20057;-58
2024/03/04 00:54:25;;;;;;;0.28;0.28;;;;;;;8.11;100.00;98301.09;5039627;28;20036;-58
2024/03/04 00:56:55;;;;;;;0.30;0.30;;;;;;;8.16;100.00;98301.16;5027271;28;20156;-58
2024/03/04 00:59:23;;;;;;;0.30;0.30;;;;;;;8.14;100.00;98308.63;5033316;28;20049;-58
2024/03/04 01:01:51;;;;;;;0.32;0.32;;;;;;;8.03;100.00;98315.69;5027869;28;20046;-58
2024/03/04 01:04:18;;;;;;;0.30;0.30;;;;;;;8.09;100.00;98319.25;5036417;28;20040;-58
2024/03/04 01:06:45;;;;;;;0.30;0.30;;;;;;;8.00;100.00;98319.66;5036578;28;20120;-56
2024/03/04 01:09:12;;;;;;;0.30;0.30;;;;;;;7.90;100.00;98327.53;5028899;28;20133;-58
2024/03/04 01:11:39;;;;;;;0.20;0.20;;;;;;;8.04;100.00;98337.84;5044935;28;20495;-58
2024/03/04 01:14:06;;;;;;;0.20;0.20;;;;;;;7.95;100.00;98340.94;5030540;28;20380;-58
2024/03/04 01:16:36;;;;;;;0.22;0.22;;;;;;;7.90;100.00;98340.88;5030228;28;20504;-58
2024/03/04 01:19:05;;;;;;;0.20;0.20;;;;;;;7.86;100.00;98349.63;5027803;28;20155;-57
2024/03/04 01:21:32;;;;;;;0.30;0.30;;;;;;;7.73;100.00;98348.13;5032632;28;20504;-57
2024/03/04 01:23:59;;;;;;;0.30;0.30;;;;;;;7.71;100.00;98352.88;5030831;28;20432;-59
2024/03/04 01:26:27;;;;;;;0.30;0.30;;;;;;;7.79;100.00;98352.47;5030475;28;20510;-57
2024/03/04 01:28:54;;;;;;;0.30;0.30;;;;;;;7.74;100.00;98355.06;5032869;28;20045;-57
2024/03/04 01:31:21;;;;;;;0.30;0.30;;;;;;;7.72;100.00;98357.19;5034879;28;20203;-56
2024/03/04 01:33:49;;;;;;;0.20;0.20;;;;;;;7.73;100.00;98362.25;5036703;28;20045;-57
2024/03/04 01:36:19;;;;;;;0.28;0.28;;;;;;;7.72;100.00;98357.19;5031169;28;20037;-57
2024/03/04 01:38:46;;;;;;;0.30;0.30;;;;;;;7.63;100.00;98374.63;5034546;28;20048;-57
2024/03/04 01:41:13;;;;;;;0.30;0.30;;;;;;;7.64;100.00;98379.75;5030912;28;20048;-57
2024/03/04 01:43:40;;;;;;;0.32;0.32;;;;;;;7.69;100.00;98384.34;5034334;28;20131;-57
2024/03/04 01:46:08;;;;;;;0.30;0.30;;;;;;;7.78;100.00;98383.66;5033921;28;20044;-58
2024/03/04 01:48:35;;;;;;;0.30;0.30;;;;;;;7.70;100.00;98381.41;5029847;28;20053;-57
2024/03/04 01:51:02;;;;;;;0.32;0.32;;;;;;;7.71;100.00;98379.56;5035089;28;20143;-58
2024/03/04 01:53:31;;;;;;;0.40;0.40;;;;;;;7.78;100.00;98383.66;5037758;28;20048;-57
2024/03/04 01:56:02;;;;;;;0.30;0.30;;;;;;;7.80;100.00;98386.09;5032525;28;20136;-57
2024/03/04 01:58:31;;;;;;;0.30;0.30;;;;;;;7.68;100.00;98393.38;5024576;28;20037;-57
2024/03/04 02:00:59;;;;;;;0.30;0.30;;;;;;;7.83;100.00;98398.13;5030213;28;20037;-57
2024/03/04 02:03:29;;;;;;;0.30;0.30;;;;;;;7.82;100.00;98399.19;5029379;28;21108;-57
2024/03/04 02:05:56;;;;;;;0.30;0.30;;;;;;;7.87;100.00;98409.94;5025381;28;20538;-57
2024/03/04 02:08:23;;;;;;;0.30;0.30;;;;;;;7.78;100.00;98405.00;5029252;28;21101;-57
2024/03/04 02:10:54;;;;;;;0.30;0.30;;;;;;;7.82;100.00;98413.34;5032786;28;20045;-57
2024/03/04 02:13:22;;;;;;;0.30;0.30;;;;;;;7.91;100.00;98414.56;5037982;28;20057;-57
2024/03/04 02:15:49;;;;;;;0.32;0.32;;;;;;;7.89;100.00;98422.00;5026114;28;20046;-58
2024/03/04 02:18:17;;;;;;;0.30;0.30;;;;;;;7.96;100.00;98422.63;5031968;28;20582;-57
2024/03/04 02:20:46;;;;;;;0.30;0.30;;;;;;;7.90;100.00;98428.13;5025719;28;20049;-57
2024/03/04 02:23:14;;;;;;;0.30;0.30;;;;;;;7.93;100.00;98432.97;5033209;28;20427;-57
2024/03/04 02:25:51;;;;;;;0.20;0.20;;;;;;;7.79;100.00;98429.84;5027176;28;20069;-57
2024/03/04 02:28:19;;;;;;;0.20;0.20;;;;;;;7.74;100.00;98437.78;5031996;28;20060;-59
2024/03/04 02:30:47;;;;;;;0.30;0.30;;;;;;;7.75;100.00;98439.38;5028594;28;20044;-57
2024/03/04 02:33:14;;;;;;;0.30;0.30;;;;;;;7.63;100.00;98443.97;5030695;28;20049;-58
2024/03/04 02:35:41;;;;;;;0.30;0.30;;;;;;;7.58;100.00;98447.38;5035247;28;20069;-57
2024/03/04 02:38:08;;;;;;;0.30;0.30;;;;;;;7.51;100.00;98452.03;5030814;28;20142;-58
2024/03/04 02:40:37;;;;;;;0.30;0.30;;;;;;;7.51;100.00;98452.03;5027805;28;20063;-57
2024/03/04 02:43:04;;;;;;;0.30;0.30;;;;;;;7.44;100.00;98457.56;5038506;28;20107;-57
2024/03/04 02:45:31;;;;;;;0.40;0.40;;;;;;;7.52;100.00;98438.47;5038954;28;20053;-57
2024/03/04 02:47:58;;;;;;;0.30;0.30;;;;;;;7.47;100.00;98454.41;5034139;28;20124;-58
2024/03/04 02:50:26;;;;;;;0.40;0.40;;;;;;;7.45;100.00;98453.81;5029829;28;20045;-57
2024/03/04 02:52:53;;;;;;;0.30;0.30;;;;;;;7.40;100.00;98455.59;5029987;28;20095;-57
2024/03/04 02:55:20;;;;;;;0.30;0.30;;;;;;;7.43;100.00;98461.25;5025826;28;20188;-59
2024/03/04 02:57:48;;;;;;;0.30;0.30;;;;;;;7.45;100.00;98463.69;5029980;28;20081;-58
2024/03/04 03:00:16;;;;;;;0.32;0.32;;;;;;;7.52;100.00;98470.47;5028952;28;20047;-58
2024/03/04 03:02:43;;;;;;;0.30;0.30;;;;;;;7.46;100.00;98471.47;5028968;28;20135;-58
2024/03/04 03:05:10;;;;;;;0.30;0.30;;;;;;;7.41;100.00;98474.00;5029737;28;20041;-58
2024/03/04 03:07:37;;;;;;;0.30;0.30;;;;;;;7.26;100.00;98473.75;5032710;28;20055;-58
2024/03/04 03:10:05;;;;;;;0.30;0.30;;;;;;;7.36;100.00;98479.25;5031784;28;20074;-58
2024/03/04 03:12:34;;;;;;;0.30;0.30;;;;;;;7.35;100.00;98477.66;5029067;28;20369;-58
2024/03/04 03:15:02;;;;;;;0.30;0.30;;;;;;;7.22;100.00;98473.41;5029854;28;20041;-58
2024/03/04 03:17:29;;;;;;;0.30;0.30;;;;;;;7.25;100.00;98477.47;5045063;28;20500;-57
2024/03/04 03:19:56;;;;;;;0.20;0.20;;;;;;;7.13;100.00;98467.66;5025084;28;20096;-58
2024/03/04 03:22:23;;;;;;;0.30;0.30;;;;;;;7.22;100.00;98473.41;5033161;28;20119;-58
2024/03/04 03:24:50;;;;;;;0.35;0.35;;;;;;;7.04;100.00;98484.25;5026114;28;20633;-58
2024/03/04 03:27:17;;;;;;;0.30;0.30;;;;;;;7.13;100.00;98477.50;5026317;28;20103;-58
2024/03/04 03:29:44;;;;;;;0.40;0.40;;;;;;;7.01;100.00;98490.88;5026847;28;20547;-58
2024/03/04 03:32:13;;;;;;;0.30;0.30;;;;;;;6.95;100.00;98485.69;5025772;28;20049;-58
2024/03/04 03:34:40;;;;;;;0.30;0.30;;;;;;;7.05;100.00;98489.34;5029522;28;20049;-58
2024/03/04 03:37:07;;;;;;;0.30;0.30;;;;;;;7.03;100.00;98475.47;5031004;28;20136;-59
2024/03/04 03:39:34;;;;;;;0.40;0.40;;;;;;;7.02;100.00;98483.72;5031842;28;20525;-58
2024/03/04 03:42:04;;;;;;;0.30;0.30;;;;;;;7.03;100.00;98485.31;5026606;28;20041;-58
2024/03/04 03:44:31;;;;;;;0.30;0.30;;;;;;;7.03;100.00;98472.78;5044344;28;20038;-58
2024/03/04 03:46:59;;;;;;;0.35;0.35;;;;;;;7.04;100.00;98477.09;5017587;28;20064;-58
2024/03/04 03:49:28;;;;;;;0.30;0.30;;;;;;;7.02;100.00;98475.72;5030700;28;20128;-58
2024/03/04 03:51:55;;;;;;;0.40;0.40;;;;;;;6.98;100.00;98478.03;5033655;28;20061;-58
2024/03/04 03:54:22;;;;;;;0.30;0.30;;;;;;;7.01;100.00;98485.53;5032709;28;20061;-58
2024/03/04 03:56:49;;;;;;;0.30;0.30;;;;;;;7.06;100.00;98493.66;5028758;28;20127;-58
2024/03/04 03:59:16;;;;;;;0.40;0.40;;;;;;;7.04;100.00;98495.75;5030686;28;20061;-58
2024/03/04 04:01:43;;;;;;;0.40;0.40;;;;;;;7.08;100.00;98496.88;5030554;28;20123;-58
2024/03/04 04:04:10;;;;;;;0.30;0.30;;;;;;;6.97;100.00;98488.94;5034778;28;20808;-58
2024/03/04 04:06:38;;;;;;;0.40;0.40;;;;;;;7.10;100.00;98493.97;5042263;28;20077;-58
2024/03/04 04:09:06;;;;;;;0.20;0.20;;;;;;;6.90;100.00;98492.53;5028791;28;20049;-58
2024/03/04 04:11:33;;;;;;;0.30;0.30;;;;;;;6.92;100.00;98502.97;5034259;28;20597;-58
2024/03/04 04:14:00;;;;;;;0.30;0.30;;;;;;;6.87;100.00;98503.66;5038788;28;20049;-58
2024/03/04 04:16:28;;;;;;;0.30;0.30;;;;;;;6.94;100.00;98506.22;5030492;28;20403;-57
2024/03/04 04:18:55;;;;;;;0.30;0.30;;;;;;;6.94;100.00;98505.38;5030614;28;20145;-58
2024/03/04 04:21:22;;;;;;;0.40;0.40;;;;;;;6.79;100.00;98514.69;5038227;28;20697;-58
2024/03/04 04:23:50;;;;;;;0.30;0.30;;;;;;;6.75;100.00;98512.72;5034773;28;20103;-57
2024/03/04 04:26:23;;;;;;;0.30;0.30;;;;;;;7.01;100.00;98533.50;5025893;28;20133;-58
2024/03/04 04:28:50;;;;;;;0.20;0.20;;;;;;;6.78;100.00;98533.56;5037218;28;20608;-58
2024/03/04 04:31:21;;;;;;;0.32;0.32;;;;;;;6.89;100.00;98535.41;5031791;28;20094;-58
2024/03/04 04:33:51;;;;;;;;;;;;;;;6.78;100.00;98549.53;5031735;28;20592;-58
2024/03/04 04:36:18;;;;;;;0.40;0.40;;;;;;;6.77;100.00;98547.94;5037497;28;19925;-58
2024/03/04 04:38:45;;;;;;;0.32;0.32;;;;;;;6.70;100.00;98562.16;5045448;28;20971;-58
2024/03/04 04:41:14;;;;;;;0.38;0.38;;;;;;;6.81;100.00;98565.84;5034383;28;20132;-58
2024/03/04 04:43:41;;;;;;;0.30;0.30;;;;;;;6.73;100.00;98557.44;5030663;28;20063;-58
2024/03/04 04:46:09;;;;;;;0.30;0.30;;;;;;;6.79;100.00;98551.16;5032336;28;20077;-58
2024/03/04 04:48:37;;;;;;;0.40;0.40;;;;;;;6.75;100.00;98553.47;5037831;28;20056;-57
2024/03/04 04:51:04;;;;;;;0.40;0.40;;;;;;;6.77;100.00;98558.59;5033950;28;20103;-58
2024/03/04 04:53:32;;;;;;;0.38;0.38;;;;;;;6.72;100.00;98566.47;5029437;28;20045;-58
2024/03/04 04:56:00;;;;;;;0.30;0.30;;;;;;;6.69;100.00;98571.22;5033354;28;20041;-57
2024/03/04 04:58:29;;;;;;;0.30;0.30;;;;;;;6.79;100.00;98570.63;5027871;28;20045;-58
2024/03/04 05:00:56;;;;;;;0.40;0.40;;;;;;;6.85;100.00;98574.19;5031592;28;20045;-57
2024/03/04 05:03:24;;;;;;;0.40;0.40;;;;;;;6.78;100.00;98566.31;5034624;28;20038;-58
2024/03/04 05:05:51;;;;;;;0.40;0.40;;;;;;;6.72;100.00;98583.25;5032765;28;20106;-59
2024/03/04 05:08:18;;;;;;;0.20;0.20;;;;;;;6.83;100.00;98584.28;5027596;28;20045;-58
2024/03/04 05:10:45;;;;;;;0.40;0.40;;;;;;;6.80;100.00;98585.56;5039028;28;20053;-57
2024/03/04 05:13:12;;;;;;;0.30;0.30;;;;;;;6.70;100.00;98580.81;5036443;28;20137;-58
2024/03/04 05:15:42;;;;;;;0.40;0.40;;;;;;;6.70;100.00;98580.81;5033652;28;20059;-57
2024/03/04 05:18:09;;;;;;;0.35;0.35;;;;;;;6.64;100.00;98576.44;5031865;28;20496;-58
2024/03/04 05:20:36;;;;;;;0.28;0.28;;;;;;;6.78;100.00;98578.84;5035048;28;20049;-57
2024/03/04 05:23:04;;;;;;;0.30;0.30;;;;;;;6.83;100.00;98594.94;5031761;28;20132;-57
2024/03/04 05:25:31;;;;;;;0.30;0.30;;;;;;;6.59;100.00;98586.97;5030026;28;20080;-57
2024/03/04 05:28:02;;;;;;;0.35;0.35;;;;;;;6.59;100.00;98584.31;5032807;28;20160;-57
2024/03/04 05:30:29;;;;;;;0.40;0.40;;;;;;;6.58;100.00;98588.00;5030977;28;20583;-56
2024/03/04 05:32:57;;;;;;;0.38;0.38;;;;;;;6.65;100.00;98594.03;5029908;28;20052;-58
2024/03/04 05:35:24;;;;;;;0.40;0.40;;;;;;;6.57;100.00;98590.91;5032560;28;20047;-59
2024/03/04 05:37:51;;;;;;;0.40;0.40;;;;;;;6.63;100.00;98597.94;5033799;28;20505;-57
2024/03/04 05:40:22;;;;;;;0.40;0.40;;;;;;;6.52;100.00;98604.91;5028639;28;20056;-58
2024/03/04 05:42:49;;;;;;;0.30;0.30;;;;;;;6.58;100.00;98603.97;5034957;28;20175;-60
2024/03/04 05:45:17;;;;;;;0.30;0.30;;;;;;;6.59;100.00;98602.94;5037245;28;20513;-60
2024/03/04 05:47:44;;;;;;;0.30;0.30;;;;;;;6.45;100.00;98602.34;5026903;28;20048;-57
2024/03/04 05:50:14;;;;;;;0.30;0.30;;;;;;;6.61;100.00;98614.16;5028300;28;20041;-57
2024/03/04 05:52:41;;;;;;;0.43;0.43;;;;;;;6.82;100.00;98618.09;5034578;28;20051;-57
2024/03/04 05:55:08;;;;;;;0.40;0.40;;;;;;;6.58;100.00;98619.94;5028670;28;20051;-57
2024/03/04 05:57:35;;;;;;;0.35;0.35;;;;;;;6.56;100.00;98627.34;5029880;28;20037;-57
2024/03/04 06:00:12;;;;;;;0.32;0.32;;;;;;;6.61;100.00;98624.81;5026632;28;20045;-57
2024/03/04 06:02:39;;;;;;;0.40;0.40;;;;;;;6.79;100.00;98634.56;5026339;28;20037;-57
2024/03/04 06:05:07;;;;;;;0.30;0.30;;;;;;;6.69;100.00;98629.81;5028022;28;20624;-57
2024/03/04 06:07:35;;;;;;;0.30;0.30;;;;;;;6.75;100.00;98636.06;5026872;28;20104;-58
2024/03/04 06:10:02;;;;;;;0.30;0.30;;;;;;;6.56;100.00;98646.00;5032245;28;20664;-57
2024/03/04 06:12:29;;;;;;;0.30;0.30;;;;;;;6.61;100.00;98640.78;5031981;28;20052;-57
2024/03/04 06:14:56;;;;;;;0.40;0.40;;;;;;;6.66;100.00;98638.25;5038262;28;20563;-57
2024/03/04 06:17:23;;;;;;;0.38;0.38;;;;;;;6.75;100.00;98640.56;5025062;28;20553;-58
2024/03/04 06:19:50;;;;;;;0.30;0.30;;;;;;;6.60;100.00;98639.16;5035616;28;20574;-58
2024/03/04 06:22:17;;;;;;;0.40;0.40;;;;;;;6.59;100.00;98650.03;5029185;28;20480;-58
2024/03/04 06:24:46;;;;;;;0.40;0.40;;;;;;;6.75;100.00;98648.56;5028800;28;20347;-57
2024/03/04 06:27:13;;;;;;;0.40;0.40;;;;;;;6.58;100.00;98646.56;5030002;28;20136;-58
2024/03/04 06:29:40;;;;;;;0.43;0.43;;;;;;;6.69;100.00;98643.13;5031769;28;20049;-57
2024/03/04 06:32:08;;;;;;;0.30;0.30;;;;;;;6.69;100.00;98648.44;5029205;28;20047;-57
2024/03/04 06:34:35;;;;;;;0.30;0.30;;;;;;;6.86;100.00;98645.91;5032912;28;20661;-57
2024/03/04 06:37:02;;;;;;;0.32;0.32;;;;;;;6.76;100.00;98655.50;5028155;28;20144;-58
2024/03/04 06:39:29;;;;;;;0.40;0.40;;;;;;;6.77;100.00;98660.59;5032323;28;20697;-58
2024/03/04 06:41:58;;;;;;;0.30;0.30;;;;;;;6.64;100.00;98663.47;5029849;28;20045;-58
2024/03/04 06:44:25;;;;;;;0.38;0.38;;;;;;;6.61;100.00;98663.94;5028262;28;20045;-58
2024/03/04 06:46:52;;;;;;;0.30;0.30;;;;;;;6.76;100.00;98660.81;5029523;28;20057;-58
2024/03/04 06:49:19;;;;;;;0.40;0.40;;;;;;;6.59;100.00;98664.19;5039786;28;20056;-58
2024/03/04 06:51:46;;;;;;;0.40;0.40;;;;;;;6.58;100.00;98662.56;5031513;28;20081;-58
2024/03/04 06:54:15;;;;;;;0.40;0.40;;;;;;;6.72;100.00;98667.69;5036785;28;20041;-59
2024/03/04 06:56:44;;;;;;;0.35;0.35;;;;;;;6.56;100.00;98675.28;5029472;28;20375;-58
2024/03/04 06:59:13;;;;;;;0.40;0.40;;;;;;;6.64;100.00;98672.28;5022682;28;20049;-58
2024/03/04 07:01:40;;;;;;;0.30;0.30;;;;;;;6.72;100.00;98683.66;5025720;28;20041;-58
2024/03/04 07:04:07;;;;;;;0.40;0.40;;;;;;;6.66;100.00;98686.19;5033210;28;20045;-58
2024/03/04 07:06:34;;;;;;;0.40;0.40;;;;;;;6.63;100.00;98681.31;5029442;28;20420;-58
2024/03/04 07:09:03;;;;;;;0.30;0.30;;;;;;;6.64;100.00;98688.28;5031098;28;20040;-58
2024/03/04 07:11:30;;;;;;;0.40;0.40;;;;;;;6.50;100.00;98686.84;5027761;28;20091;-58
2024/03/04 07:13:57;;;;;;;0.30;0.30;;;;;;;6.47;100.00;98682.00;5030764;28;20049;-58
2024/03/04 07:16:25;;;;;;;0.40;0.40;;;;;;;6.65;100.00;98703.19;5022682;28;20700;-58
2024/03/04 07:18:52;;;;;;;0.40;0.40;;;;;;;6.62;100.00;98694.88;5029272;28;20453;-58
2024/03/04 07:21:20;;;;;;;0.30;0.30;;;;;;;6.73;100.00;98695.91;5030898;28;20044;-58
2024/03/04 07:23:47;;;;;;;0.40;0.40;;;;;;;6.76;100.00;98695.44;5030289;28;20096;-58
2024/03/04 07:26:15;;;;;;;0.40;0.40;;;;;;;6.75;100.00;98694.66;5034272;28;20480;-58
2024/03/04 07:28:43;;;;;;;0.40;0.40;;;;;;;6.64;100.00;98698.09;5033269;28;20149;-57
2024/03/04 07:31:10;;;;;;;0.40;0.40;;;;;;;6.70;100.00;98697.19;5030843;28;20045;-58
2024/03/04 07:33:40;;;;;;;0.40;0.40;;;;;;;6.91;100.00;98703.78;5030078;28;20139;-59
2024/03/04 07:36:07;;;;;;;0.30;0.30;;;;;;;6.77;100.00;98697.09;5036573;28;20049;-58
2024/03/04 07:38:35;;;;;;;0.30;0.30;;;;;;;6.56;100.00;98704.56;5025976;28;20107;-57
2024/03/04 07:41:02;;;;;;;0.40;0.40;;;;;;;6.56;100.00;98707.22;5032922;28;20048;-57
2024/03/04 07:43:30;;;;;;;0.50;0.50;;;;;;;6.56;100.00;98703.75;5031441;28;20040;-60
2024/03/04 07:45:57;;;;;;;0.32;0.32;;;;;;;6.64;100.00;98704.25;5033800;28;20053;-58
2024/03/04 07:48:24;;;;;;;0.30;0.30;;;;;;;6.82;100.00;98718.53;5030857;28;20053;-58
2024/03/04 07:50:52;;;;;;;0.40;0.40;;;;;;;6.61;100.00;98714.53;5028346;28;20049;-58
2024/03/04 07:53:19;;;;;;;0.30;0.30;;;;;;;6.80;100.00;98728.59;5027312;28;20647;-58
2024/03/04 07:55:48;;;;;;;0.30;0.30;;;;;;;6.75;100.00;98720.47;5029514;28;20064;-57
2024/03/04 07:58:15;;;;;;;0.30;0.30;;;;;;;6.66;100.00;98723.47;5031019;28;20076;-57
2024/03/04 08:00:42;;;;;;;0.30;0.30;;;;;;;6.55;100.00;98734.09;5030714;28;20069;-57
2024/03/04 08:03:09;;;;;;;0.30;0.30;;;;;;;6.59;100.00;98736.09;5028430;28;20114;-57
2024/03/04 08:05:36;;;;;;;0.40;0.40;;;;;;;6.48;100.00;98742.19;5029200;28;20480;-57
2024/03/04 08:08:05;;;;;;;0.40;0.40;;;;;;;6.70;100.00;98740.59;5026412;28;20095;-57
2024/03/04 08:10:33;;;;;;;0.40;0.40;;;;;;;6.55;100.00;98737.56;5028943;28;20152;-57
2024/03/04 08:13:00;;;;;;;0.40;0.40;;;;;;;6.45;100.00;98742.63;5026761;28;20088;-58
2024/03/04 08:15:29;;;;;;;0.30;0.30;;;;;;;6.43;100.00;98742.84;5032091;28;20126;-57
2024/03/04 08:17:56;;;;;;;0.30;0.30;;;;;;;6.47;100.00;98749.34;5022784;28;20550;-58
2024/03/04 08:20:23;;;;;;;0.38;0.38;;;;;;;6.41;100.00;98752.91;5030764;28;20038;-56
2024/03/04 08:22:50;;;;;;;0.45;0.45;;;;;;;6.46;100.00;98746.91;5031904;28;20143;-57
2024/03/04 08:25:18;;;;;;;0.30;0.30;;;;;;;6.61;100.00;98763.28;5030647;28;20804;-58
2024/03/04 08:27:46;;;;;;;0.30;0.30;;;;;;;6.67;100.00;98766.91;5027356;28;20073;-57
2024/03/04 08:30:15;;;;;;;0.30;0.30;;;;;;;6.73;100.00;98765.16;5028290;28;20052;-57
2024/03/04 08:32:44;;;;;;;0.33;0.33;;;;;;;6.69;100.00;98770.94;5034107;28;20145;-57
2024/03/04 08:35:12;;;;;;;0.30;0.30;;;;;;;6.66;100.00;98765.25;5031362;28;20041;-57
2024/03/04 08:37:39;;;;;;;0.32;0.32;;;;;;;6.52;100.00;98769.19;5030142;28;20565;-57
2024/03/04 08:40:08;;;;;;;0.30;0.30;;;;;;;6.60;100.00;98766.19;5032122;28;20076;-57
2024/03/04 08:42:38;;;;;;;0.40;0.40;;;;;;;6.97;100.00;98772.16;5037637;28;20056;-58
2024/03/04 08:45:06;;;;;;;0.40;0.40;;;;;;;6.98;100.00;98768.44;5035586;28;20509;-58
2024/03/04 08:47:33;;;;;;;0.40;0.40;;;;;;;7.11;100.00;98776.22;5027241;28;20053;-57
2024/03/04 08:50:01;;;;;;;0.30;0.30;;;;;;;7.05;100.00;98782.47;5028384;28;20107;-58
2024/03/04 08:52:28;;;;;;;0.40;0.40;;;;;;;7.13;100.00;98787.44;5030363;28;20036;-58
2024/03/04 08:54:55;;;;;;;0.40;0.40;;;;;;;7.26;100.00;98778.44;5030098;28;20042;-58
2024/03/04 08:57:22;;;;;;;0.30;0.30;;;;;;;7.28;100.00;98784.34;5027638;28;20835;-58
2024/03/04 08:59:51;;;;;;;0.40;0.40;;;;;;;7.35;100.00;98778.91;5029699;28;20107;-57
2024/03/04 09:02:18;;;;;;;0.40;0.40;;;;;;;7.12;100.00;98783.19;5026574;28;20675;-58
2024/03/04 09:04:47;;;;;;;0.30;0.30;;;;;;;7.11;100.00;98783.41;5031808;28;20129;-58
2024/03/04 09:07:15;;;;;;;0.30;0.30;;;;;;;7.02;100.00;98785.59;5025314;28;20056;-57
2024/03/04 09:09:42;;;;;;;0.30;0.30;;;;;;;7.30;100.00;98782.25;5029050;28;20072;-58
2024/03/04 09:12:09;;;;;;;0.40;0.40;;;;;;;7.25;100.00;98784.00;5032967;28;20099;-58
2024/03/04 09:14:37;;;;;;;0.28;0.28;;;;;;;7.06;100.00;98780.59;5027858;28;20061;-58
2024/03/04 09:17:06;;;;;;;0.30;0.30;;;;;;;7.11;100.00;98784.22;5036405;28;20057;-58
2024/03/04 09:19:33;;;;;;;0.40;0.40;;;;;;;7.00;100.00;98782.34;5032696;28;20119;-58
2024/03/04 09:22:00;;;;;;;0.30;0.30;;;;;;;7.18;100.00;98788.63;5036318;28;20489;-58
2024/03/04 09:24:27;;;;;;;0.32;0.32;;;;;;;6.91;100.00;98789.88;5032972;28;20166;-58
2024/03/04 09:26:54;;;;;;;0.40;0.40;;;;;;;6.98;100.00;98789.75;5036171;28;20107;-58
2024/03/04 09:29:22;;;;;;;0.47;0.47;;;;;;;6.99;100.00;98786.06;5025378;28;20052;-58
2024/03/04 09:31:49;;;;;;;0.40;0.40;;;;;;;7.07;100.00;98783.06;5037110;28;20516;-57
2024/03/04 09:34:18;;;;;;;0.40;0.40;;;;;;;7.17;100.00;98792.34;5033696;28;20477;-58
2024/03/04 09:36:45;;;;;;;0.40;0.40;;;;;;;7.53;100.00;98792.09;5028645;28;20052;-58
2024/03/04 09:39:12;;;;;;;0.38;0.38;;;;;;;7.51;100.00;98791.53;5031532;28;20049;-58
2024/03/04 09:41:39;;;;;;;0.30;0.30;;;;;;;7.11;100.00;98778.91;5030902;28;20053;-58
2024/03/04 09:44:06;;;;;;;0.30;0.30;;;;;;;7.25;100.00;98790.13;5032485;28;20500;-58
2024/03/04 09:46:35;;;;;;;0.40;0.40;;;;;;;7.50;100.00;98792.56;5033978;28;20492;-58
2024/03/04 09:49:02;;;;;;;0.40;0.40;;;;;;;7.66;100.00;98798.22;5026334;28;20613;-57
2024/03/04 09:51:31;;;;;;;0.30;0.30;;;;;;;7.68;100.00;98788.13;5032460;28;20235;-58
2024/03/04 09:53:58;;;;;;;0.30;0.30;;;;;;;7.63;100.00;98790.69;5030546;28;20041;-58
2024/03/04 09:56:26;;;;;;;0.30;0.30;;;;;;;7.78;100.00;98793.69;5026703;28;20052;-58
2024/03/04 09:58:54;;;;;;;0.30;0.30;;;;;;;7.54;100.00;98796.41;5032486;28;20052;-59
2024/03/04 10:01:22;;;;;;;0.40;0.40;;;;;;;7.40;100.00;98795.00;5031962;28;20710;-59
2024/03/04 10:03:49;;;;;;;0.30;0.30;;;;;;;7.65;100.00;98794.75;5033290;28;20149;-59
2024/03/04 10:06:17;;;;;;;0.30;0.30;;;;;;;7.51;100.00;98801.38;5037613;28;20040;-59
2024/03/04 10:08:45;;;;;;;0.20;0.20;;;;;;;7.53;100.00;98797.44;5034620;28;20069;-58
2024/03/04 10:11:13;;;;;;;0.20;0.20;;;;;;;7.74;100.00;98798.69;5031013;28;20460;-58
2024/03/04 10:13:40;;;;;;;0.30;0.30;;;;;;;7.78;100.00;98793.69;5031536;28;20132;-57
2024/03/04 10:16:09;;;;;;;0.30;0.30;;;;;;;7.52;100.00;98795.81;5031827;28;20139;-57
2024/03/04 10:18:36;;;;;;;0.30;0.30;;;;;;;7.55;100.00;98798.00;5032753;28;20559;-58
2024/03/04 10:21:04;;;;;;;0.40;0.40;;;;;;;7.53;100.00;98797.44;5036726;28;20048;-57
2024/03/04 10:23:31;;;;;;;0.30;0.30;;;;;;;7.59;100.00;98795.69;5031553;28;20255;-58
2024/03/04 10:26:08;;;;;;;0.30;0.30;;;;;;;7.54;100.00;98806.25;5028103;28;20049;-58
2024/03/04 10:28:38;;;;;;;0.30;0.30;;;;;;;7.69;100.00;98797.78;5024418;28;20055;-58
2024/03/04 10:31:11;;;;;;;0.27;0.27;;;;;;;7.58;100.00;98810.06;5033874;28;20126;-58
2024/03/04 10:33:38;;;;;;;0.25;0.25;;;;;;;7.55;100.00;98805.19;5029333;28;20072;-57
2024/03/04 10:36:18;;;;;;;0.30;0.30;;;;;;;7.68;100.00;98796.94;5033128;28;20047;-57
2024/03/04 10:38:46;;;;;;;0.32;0.32;;;;;;;7.75;100.00;98799.50;5032395;28;20098;-57
2024/03/04 10:41:23;;;;;;;0.30;0.30;;;;;;;7.72;100.00;98800.78;5035511;28;20447;-58
2024/03/04 10:43:51;;;;;;;0.38;0.38;;;;;;;7.82;100.00;98805.53;5025857;28;20052;-58
2024/03/04 10:46:20;;;;;;;0.30;0.30;;;;;;;7.89;100.00;98806.22;5025364;28;20507;-58
2024/03/04 10:48:47;;;;;;;0.30;0.30;;;;;;;7.65;100.00;98816.09;5034144;28;20424;-58
2024/03/04 10:51:15;;;;;;;0.40;0.40;;;;;;;7.86;100.00;98809.34;5028885;28;20056;-58
2024/03/04 10:53:42;;;;;;;0.30;0.30;;;;;;;7.84;100.00;98802.59;5025557;28;20757;-58
2024/03/04 10:56:09;;;;;;;0.40;0.40;;;;;;;7.77;100.00;98800.09;5034189;28;20063;-58
2024/03/04 10:58:38;;;;;;;0.30;0.30;;;;;;;7.95;100.00;98810.59;5029960;28;20049;-58
2024/03/04 11:01:09;;;;;;;0.30;0.30;;;;;;;7.99;100.00;98811.75;5027965;28;20072;-58
2024/03/04 11:03:37;;;;;;;0.30;0.30;;;;;;;7.84;100.00;98808.78;5029222;28;20049;-58
2024/03/04 11:06:04;;;;;;;0.30;0.30;;;;;;;7.73;100.00;98806.91;5032333;28;20048;-58
2024/03/04 11:08:35;;;;;;;0.30;0.30;;;;;;;7.83;100.00;98807.13;5029623;28;20037;-59
2024/03/04 11:11:06;;;;;;;0.30;0.30;;;;;;;7.93;100.00;98810.00;5029100;28;20140;-59
2024/03/04 11:13:37;;;;;;;0.22;0.22;;;;;;;7.52;100.00;98806.47;5033121;28;20602;-58
2024/03/04 11:16:07;;;;;;;0.25;0.25;;;;;;;7.62;100.00;98815.75;5031800;28;20044;-58
2024/03/04 11:18:40;;;;;;;0.40;0.40;;;;;;;7.75;100.00;98816.31;5028736;28;20065;-58
2024/03/04 11:21:07;;;;;;;0.40;0.40;;;;;;;7.77;100.00;98814.22;5027136;28;20067;-58
2024/03/04 11:23:35;;;;;;;0.40;0.40;;;;;;;7.83;100.00;98819.66;5030199;28;20030;-58
2024/03/04 11:26:02;;;;;;;0.30;0.30;;;;;;;7.74;100.00;98825.38;5024303;28;20916;-59
2024/03/04 11:28:29;;;;;;;0.30;0.30;;;;;;;8.10;100.00;98823.44;5025926;28;20045;-59
2024/03/04 11:31:00;;;;;;;0.30;0.30;;;;;;;7.89;100.00;98824.09;5029992;28;20049;-58
2024/03/04 11:33:37;;;;;;;0.40;0.40;;;;;;;7.93;100.00;98828.69;5035184;28;20099;-58
2024/03/04 11:36:05;;;;;;;0.30;0.30;;;;;;;7.92;100.00;98832.41;5032318;28;20041;-56